Time;durP1;ratioP1;P1;durP2;ratioP2;P2;SDS_P1;SDS_P2;PMS_P1;PMS_P2;Temp;Humidity;BMP_temperature;BMP_pressure;BME280_temperature;BME280_humidity;BME280_pressure;Samples;Min_cycle;Max_cycle;Signal;HPM_P1;HPM_P2
2023/08/03 00:00:38;;;;;;;4.33;1.03;;;18.50;99.90;;;;;;5018874;28;20710;-73
2023/08/03 00:03:05;;;;;;;3.50;1.57;;;18.50;99.90;;;;;;4985457;28;20236;-73
2023/08/03 00:05:31;;;;;;;6.53;1.30;;;18.50;99.90;;;;;;5000491;28;20228;-74
2023/08/03 00:07:57;;;;;;;3.43;1.00;;;18.40;99.90;;;;;;5000241;28;20542;-74
2023/08/03 00:10:22;;;;;;;3.93;1.00;;;18.40;99.90;;;;;;4999952;28;20228;-73
2023/08/03 00:12:50;;;;;;;4.83;1.47;;;18.40;99.90;;;;;;5001108;28;20303;-73
2023/08/03 00:15:16;;;;;;;3.10;1.20;;;18.40;99.90;;;;;;5016138;28;20482;-73
2023/08/03 00:17:42;;;;;;;3.50;1.07;;;18.40;99.90;;;;;;5001522;28;20478;-74
2023/08/03 00:20:09;;;;;;;3.27;1.93;;;18.40;99.90;;;;;;5016467;28;20534;-73
2023/08/03 00:22:35;;;;;;;1.10;0.97;;;18.40;99.90;;;;;;4999161;28;20478;-73
2023/08/03 00:25:03;;;;;;;2.70;1.17;;;18.40;99.90;;;;;;5000281;28;20466;-73
2023/08/03 00:27:29;;;;;;;4.77;1.27;;;18.40;99.90;;;;;;4999343;28;20478;-73
2023/08/03 00:29:55;;;;;;;1.93;0.83;;;18.40;99.90;;;;;;5001627;28;20470;-74
2023/08/03 00:32:21;;;;;;;3.23;1.03;;;18.30;99.90;;;;;;4999260;28;20474;-73
2023/08/03 00:34:47;;;;;;;10.63;1.63;;;18.30;99.90;;;;;;5002960;28;20243;-73
2023/08/03 00:37:13;;;;;;;2.00;0.70;;;18.30;99.90;;;;;;5014540;28;20467;-73
2023/08/03 00:39:39;;;;;;;3.03;1.00;;;18.30;99.90;;;;;;5001066;28;20794;-74
2023/08/03 00:42:05;;;;;;;2.10;0.80;;;18.30;99.90;;;;;;5000610;28;20478;-73
2023/08/03 00:44:32;;;;;;;5.53;1.17;;;18.30;99.90;;;;;;4999594;28;20347;-73
2023/08/03 00:46:57;;;;;;;6.00;1.20;;;18.30;99.90;;;;;;5014653;28;20482;-73
2023/08/03 00:49:28;;;;;;;2.03;1.00;;;18.30;99.90;;;;;;5000105;28;20458;-74
2023/08/03 00:51:58;;;;;;;4.03;1.10;;;18.30;99.90;;;;;;4999273;28;20686;-73
2023/08/03 00:54:24;;;;;;;3.70;1.10;;;18.30;99.90;;;;;;4998681;28;20505;-74
2023/08/03 00:56:50;;;;;;;3.60;0.93;;;18.30;99.90;;;;;;5000263;28;20455;-72
2023/08/03 00:59:16;;;;;;;2.63;1.17;;;18.30;99.90;;;;;;4999123;28;20474;-74
2023/08/03 01:01:41;;;;;;;1.00;0.90;;;18.30;99.90;;;;;;4998742;28;20474;-73
2023/08/03 01:04:07;;;;;;;3.43;0.73;;;18.30;99.90;;;;;;5000655;28;20224;-73
2023/08/03 01:06:33;;;;;;;1.80;0.90;;;18.30;99.90;;;;;;4998548;28;20892;-73
2023/08/03 01:09:00;;;;;;;2.60;1.00;;;18.20;99.90;;;;;;5001140;28;21027;-73
2023/08/03 01:11:28;;;;;;;1.90;0.70;;;18.20;99.90;;;;;;4998167;28;20246;-73
2023/08/03 01:13:54;;;;;;;3.90;1.00;;;18.10;99.90;;;;;;5001217;28;20494;-74
2023/08/03 01:16:20;;;;;;;1.33;0.93;;;18.10;99.90;;;;;;5014608;28;20459;-73
2023/08/03 01:18:45;;;;;;;2.53;0.90;;;18.00;99.90;;;;;;4998449;28;20451;-74
2023/08/03 01:21:14;;;;;;;1.33;0.73;;;18.00;99.90;;;;;;4992197;28;20690;-73
2023/08/03 01:23:40;;;;;;;2.13;0.90;;;18.00;99.90;;;;;;5018136;28;20594;-73
2023/08/03 01:26:05;;;;;;;5.70;1.17;;;17.90;99.90;;;;;;4999084;28;20477;-73
2023/08/03 01:28:31;;;;;;;3.80;1.00;;;17.90;99.90;;;;;;4998514;28;20622;-73
2023/08/03 01:30:57;;;;;;;1.73;0.80;;;17.90;99.90;;;;;;4998489;28;20298;-72
2023/08/03 01:33:22;;;;;;;1.67;0.80;;;17.90;99.90;;;;;;5014522;28;20310;-73
2023/08/03 01:35:51;;;;;;;1.20;0.83;;;17.90;99.90;;;;;;4998096;28;20271;-73
2023/08/03 01:38:17;;;;;;;2.37;0.77;;;17.90;99.90;;;;;;4999898;28;20212;-73
2023/08/03 01:40:43;;;;;;;1.73;0.90;;;17.80;99.90;;;;;;5000048;28;20459;-73
2023/08/03 01:43:09;;;;;;;4.60;0.93;;;17.90;99.90;;;;;;4998314;28;20232;-73
2023/08/03 01:45:36;;;;;;;1.43;0.60;;;17.90;99.90;;;;;;4998364;28;20285;-73
2023/08/03 01:48:02;;;;;;;1.20;0.90;;;17.90;99.90;;;;;;5000168;28;20496;-73
2023/08/03 01:50:28;;;;;;;1.13;0.60;;;17.90;99.90;;;;;;5014582;28;21024;-74
2023/08/03 01:52:53;;;;;;;0.93;0.50;;;17.90;99.90;;;;;;5015085;28;20737;-72
2023/08/03 01:55:19;;;;;;;2.77;0.73;;;17.80;99.90;;;;;;4996867;28;20235;-73
2023/08/03 01:57:45;;;;;;;0.87;0.70;;;17.80;99.90;;;;;;5017803;28;20239;-73
2023/08/03 02:00:11;;;;;;;2.27;1.10;;;17.60;99.90;;;;;;4981040;28;20264;-73
2023/08/03 02:02:39;;;;;;;1.10;0.80;;;17.70;99.90;;;;;;5014935;28;20317;-73
2023/08/03 02:05:06;;;;;;;2.10;0.70;;;17.60;99.90;;;;;;4996154;28;20486;-73
2023/08/03 02:07:46;;;;;;;2.20;0.80;;;17.60;99.90;;;;;;4974811;28;20470;-72
2023/08/03 02:10:14;;;;;;;0.77;0.60;;;17.70;99.90;;;;;;4987440;28;20479;-73
2023/08/03 02:12:40;;;;;;;2.93;0.70;;;17.60;99.90;;;;;;5016543;28;20471;-73
2023/08/03 02:15:06;;;;;;;0.90;0.80;;;17.60;99.90;;;;;;4999195;28;20486;-73
2023/08/03 02:17:33;;;;;;;1.67;0.90;;;17.60;99.90;;;;;;4998114;28;20472;-73
2023/08/03 02:19:59;;;;;;;4.03;0.93;;;17.50;99.90;;;;;;4996332;28;20483;-72
2023/08/03 02:22:25;;;;;;;5.43;0.93;;;17.50;99.90;;;;;;4980405;28;20513;-73
2023/08/03 02:24:51;;;;;;;1.27;0.70;;;17.50;99.90;;;;;;5014990;28;21047;-73
2023/08/03 02:27:17;;;;;;;2.40;1.33;;;17.40;99.90;;;;;;5000607;28;20242;-73
2023/08/03 02:29:42;;;;;;;2.83;0.70;;;17.40;99.90;;;;;;5000615;28;20962;-74
2023/08/03 02:32:08;;;;;;;0.80;0.80;;;17.40;99.90;;;;;;4996744;28;20327;-73
2023/08/03 02:34:36;;;;;;;1.60;0.80;;;17.30;99.90;;;;;;4997429;28;20225;-74
2023/08/03 02:37:02;;;;;;;1.63;0.80;;;17.30;99.90;;;;;;4997183;28;21080;-73
2023/08/03 02:39:28;;;;;;;1.03;0.80;;;17.40;99.90;;;;;;4990523;28;20608;-73
2023/08/03 02:41:55;;;;;;;1.87;0.80;;;17.50;99.90;;;;;;4999323;28;20298;-74
2023/08/03 02:44:26;;;;;;;3.40;0.93;;;17.40;99.90;;;;;;4998959;28;20478;-73
2023/08/03 02:46:52;;;;;;;0.70;0.70;;;17.40;99.90;;;;;;5000306;28;20617;-74
2023/08/03 02:49:19;;;;;;;2.03;1.23;;;17.30;99.90;;;;;;4981406;28;20471;-73
2023/08/03 02:51:45;;;;;;;2.60;0.83;;;17.40;99.90;;;;;;4991619;28;21110;-73
2023/08/03 02:54:11;;;;;;;1.83;1.00;;;17.20;99.90;;;;;;4997074;28;20477;-74
2023/08/03 02:56:43;;;;;;;1.40;1.20;;;17.20;99.90;;;;;;4982327;28;20616;-72
2023/08/03 02:59:09;;;;;;;2.47;1.00;;;17.10;99.90;;;;;;5013232;28;21058;-73
2023/08/03 03:01:41;;;;;;;2.87;1.30;;;17.10;99.90;;;;;;5014317;28;20292;-73
2023/08/03 03:04:07;;;;;;;5.30;1.23;;;17.20;99.90;;;;;;4999286;28;21164;-73
2023/08/03 03:06:38;;;;;;;1.20;1.10;;;17.20;99.90;;;;;;4997065;28;20224;-73
2023/08/03 03:09:05;;;;;;;1.57;1.10;;;17.30;99.90;;;;;;5014406;28;20479;-73
2023/08/03 03:11:32;;;;;;;2.53;1.47;;;17.20;99.90;;;;;;4979305;28;21007;-73
2023/08/03 03:13:59;;;;;;;1.80;1.60;;;17.20;99.90;;;;;;5007572;28;21126;-72
2023/08/03 03:16:26;;;;;;;1.20;0.80;;;17.30;99.90;;;;;;4998643;28;21042;-73
2023/08/03 03:18:53;;;;;;;1.13;1.00;;;17.20;99.90;;;;;;4998232;28;20471;-73
2023/08/03 03:21:22;;;;;;;1.70;0.93;;;17.00;99.90;;;;;;4996223;28;20586;-72
2023/08/03 03:23:48;;;;;;;2.27;1.60;;;17.10;99.90;;;;;;4998533;28;20262;-73
2023/08/03 03:26:13;;;;;;;4.40;1.30;;;17.00;99.90;;;;;;4995729;28;21096;-74
2023/08/03 03:28:40;;;;;;;2.33;1.10;;;16.90;99.90;;;;;;4998628;28;20219;-74
2023/08/03 03:31:06;;;;;;;3.80;1.23;;;16.90;99.90;;;;;;4981352;28;20309;-74
2023/08/03 03:33:32;;;;;;;1.80;1.17;;;16.90;99.90;;;;;;4998796;28;20469;-74
2023/08/03 03:36:06;;;;;;;2.33;0.97;;;17.00;99.90;;;;;;5001842;28;20222;-73
2023/08/03 03:38:33;;;;;;;2.13;1.40;;;17.20;99.90;;;;;;4999000;28;20544;-73
2023/08/03 03:40:58;;;;;;;1.30;1.20;;;17.10;99.90;;;;;;5000567;28;20459;-74
2023/08/03 03:43:24;;;;;;;1.73;1.57;;;17.00;99.90;;;;;;4999184;28;20224;-73
2023/08/03 03:45:50;;;;;;;2.00;1.20;;;17.00;99.90;;;;;;5000570;28;20506;-73
2023/08/03 03:48:18;;;;;;;2.83;1.40;;;17.00;99.90;;;;;;5017031;28;20669;-73
2023/08/03 03:50:43;;;;;;;3.37;1.40;;;16.90;99.90;;;;;;5003522;28;20458;-72
2023/08/03 03:53:09;;;;;;;1.37;1.27;;;16.80;99.90;;;;;;5002486;28;20220;-73
2023/08/03 03:55:39;;;;;;;1.30;1.20;;;16.70;99.90;;;;;;5003764;28;20231;-73
2023/08/03 03:58:04;;;;;;;3.33;1.27;;;16.70;99.90;;;;;;5002291;28;20450;-72
2023/08/03 04:00:33;;;;;;;5.93;1.60;;;16.70;99.90;;;;;;5002912;28;20233;-74
2023/08/03 04:02:59;;;;;;;1.33;1.30;;;16.70;99.90;;;;;;5005539;28;20938;-74
2023/08/03 04:05:25;;;;;;;3.03;1.33;;;16.70;99.90;;;;;;4986708;28;20502;-74
2023/08/03 04:07:52;;;;;;;3.07;1.53;;;16.70;99.90;;;;;;5003404;28;20223;-74
2023/08/03 04:10:19;;;;;;;2.20;1.30;;;16.80;99.90;;;;;;4986330;28;20496;-73
2023/08/03 04:12:45;;;;;;;2.50;1.50;;;16.70;99.90;;;;;;5020480;28;20486;-74
2023/08/03 04:15:10;;;;;;;2.30;1.27;;;16.70;99.90;;;;;;5020199;28;20314;-74
2023/08/03 04:17:38;;;;;;;1.23;1.00;;;16.80;99.90;;;;;;5002065;28;20220;-73
2023/08/03 04:20:06;;;;;;;1.30;1.20;;;16.80;99.90;;;;;;5005333;28;20262;-72
2023/08/03 04:22:31;;;;;;;2.97;1.40;;;16.70;99.90;;;;;;5003800;28;20557;-73
2023/08/03 04:24:59;;;;;;;2.77;1.83;;;16.80;99.90;;;;;;5002084;28;20546;-73
2023/08/03 04:27:25;;;;;;;4.00;1.43;;;16.60;99.90;;;;;;5002052;28;20466;-73
2023/08/03 04:29:51;;;;;;;2.00;1.07;;;16.60;99.90;;;;;;5003132;28;20497;-72
2023/08/03 04:32:17;;;;;;;1.27;1.10;;;16.60;99.90;;;;;;5001370;28;21067;-74
2023/08/03 04:34:44;;;;;;;5.07;1.47;;;16.60;99.90;;;;;;5003195;28;20277;-73
2023/08/03 04:37:10;;;;;;;2.63;1.40;;;16.60;99.90;;;;;;5003009;28;20470;-73
2023/08/03 04:39:37;;;;;;;1.53;1.10;;;16.60;99.90;;;;;;4992063;28;20467;-73
2023/08/03 04:42:03;;;;;;;2.70;1.37;;;16.60;99.90;;;;;;4998654;28;20475;-72
2023/08/03 04:44:32;;;;;;;1.70;1.30;;;16.60;99.90;;;;;;5001217;28;20781;-73
2023/08/03 04:46:58;;;;;;;1.03;1.00;;;16.60;99.90;;;;;;5000087;28;20468;-73
2023/08/03 04:49:25;;;;;;;2.10;1.20;;;16.70;99.90;;;;;;4982496;28;20464;-73
2023/08/03 04:51:54;;;;;;;1.07;0.80;;;16.80;99.90;;;;;;4999174;28;20595;-72
2023/08/03 04:54:22;;;;;;;2.73;0.93;;;16.70;99.90;;;;;;4981861;28;20475;-73
2023/08/03 04:56:48;;;;;;;1.73;1.30;;;16.70;99.90;;;;;;4983574;28;20595;-73
2023/08/03 04:59:15;;;;;;;4.80;2.23;;;16.60;99.90;;;;;;4982390;28;20560;-73
2023/08/03 05:01:40;;;;;;;1.87;1.10;;;16.70;99.90;;;;;;5019442;28;20478;-73
2023/08/03 05:04:06;;;;;;;1.10;1.00;;;16.60;99.90;;;;;;5003016;28;20392;-72
2023/08/03 05:06:32;;;;;;;1.63;1.07;;;16.70;99.90;;;;;;4984963;28;20328;-73
2023/08/03 05:08:58;;;;;;;6.40;1.43;;;16.70;99.90;;;;;;5019646;28;20215;-73
2023/08/03 05:11:26;;;;;;;2.87;1.20;;;16.70;99.90;;;;;;5001768;28;20482;-72
2023/08/03 05:13:51;;;;;;;1.50;1.23;;;16.60;99.90;;;;;;4986004;28;20537;-73
2023/08/03 05:16:23;;;;;;;2.87;1.20;;;16.60;99.90;;;;;;4983172;28;20224;-73
2023/08/03 05:18:49;;;;;;;3.87;1.70;;;16.60;99.90;;;;;;4986465;28;20224;-73
2023/08/03 05:21:14;;;;;;;1.27;1.07;;;16.60;99.90;;;;;;5000850;28;20990;-72
2023/08/03 05:23:40;;;;;;;4.63;1.27;;;16.60;99.90;;;;;;5020137;28;20329;-73
2023/08/03 05:26:05;;;;;;;4.70;1.40;;;16.50;99.90;;;;;;5004069;28;20227;-73
2023/08/03 05:28:31;;;;;;;5.80;1.30;;;16.50;99.90;;;;;;5000396;28;20251;-73
2023/08/03 05:30:57;;;;;;;1.33;1.23;;;16.60;99.90;;;;;;5001543;28;20267;-73
2023/08/03 05:33:23;;;;;;;1.47;1.37;;;16.70;99.90;;;;;;5019431;28;20228;-73
2023/08/03 05:35:48;;;;;;;2.60;1.60;;;16.70;99.90;;;;;;5020037;28;20220;-75
2023/08/03 05:38:15;;;;;;;1.30;1.20;;;16.60;99.90;;;;;;5000448;28;20228;-74
2023/08/03 05:40:40;;;;;;;2.17;1.40;;;16.60;99.90;;;;;;5002205;28;20273;-74
2023/08/03 05:43:10;;;;;;;2.40;1.20;;;16.60;99.90;;;;;;4985202;28;20624;-73
2023/08/03 05:45:44;;;;;;;3.23;1.37;;;16.60;99.90;;;;;;5020716;28;20286;-73
2023/08/03 05:48:16;;;;;;;2.10;1.30;;;16.60;99.90;;;;;;5017336;28;20465;-74
2023/08/03 05:50:52;;;;;;;1.70;1.47;;;16.50;99.90;;;;;;5018838;28;20578;-74
2023/08/03 05:53:19;;;;;;;6.93;1.63;;;16.50;99.90;;;;;;5017779;28;21759;-74
2023/08/03 05:55:45;;;;;;;3.20;1.50;;;16.60;99.90;;;;;;5017431;28;20494;-75
2023/08/03 05:58:13;;;;;;;5.70;1.87;;;16.60;99.90;;;;;;5019967;28;20467;-74
2023/08/03 06:00:47;;;;;;;4.00;1.40;;;16.50;99.90;;;;;;5017557;28;20474;-73
2023/08/03 06:03:14;;;;;;;1.50;1.10;;;16.50;99.90;;;;;;5018464;28;20563;-74
2023/08/03 06:05:44;;;;;;;3.53;1.67;;;16.50;99.90;;;;;;5003029;28;20470;-75
2023/08/03 06:08:21;;;;;;;2.90;1.50;;;16.60;99.90;;;;;;5003181;28;20471;-73
2023/08/03 06:10:52;;;;;;;2.67;1.30;;;16.60;99.90;;;;;;5001723;28;20461;-73
2023/08/03 06:13:34;;;;;;;4.53;1.83;;;16.60;99.90;;;;;;4992552;28;20599;-74
2023/08/03 06:16:14;;;;;;;2.57;1.50;;;16.60;99.90;;;;;;5001153;28;20470;-72
2023/08/03 06:18:52;;;;;;;3.70;1.77;;;16.60;99.90;;;;;;5010727;28;20462;-73
2023/08/03 06:21:19;;;;;;;2.80;1.60;;;16.60;99.90;;;;;;5016420;28;21074;-73
2023/08/03 06:23:50;;;;;;;2.17;1.97;;;16.70;99.90;;;;;;5017432;28;20481;-73
2023/08/03 06:26:19;;;;;;;1.23;1.23;;;16.70;99.90;;;;;;5016443;28;20995;-73
2023/08/03 06:28:46;;;;;;;2.37;1.43;;;16.70;99.90;;;;;;5020552;28;20561;-73
2023/08/03 06:31:14;;;;;;;4.80;2.10;;;16.70;99.90;;;;;;5001489;28;20520;-73
2023/08/03 06:33:42;;;;;;;3.53;1.90;;;16.70;99.90;;;;;;5032554;28;20458;-73
2023/08/03 06:36:10;;;;;;;2.77;1.30;;;16.70;99.90;;;;;;5020768;28;21315;-73
2023/08/03 06:38:36;;;;;;;2.13;1.87;;;16.80;99.90;;;;;;5032729;28;20570;-74
2023/08/03 06:41:02;;;;;;;1.47;1.30;;;16.70;99.90;;;;;;5000210;28;20553;-73
2023/08/03 06:43:30;;;;;;;2.27;1.40;;;16.70;99.90;;;;;;5014140;28;20487;-74
2023/08/03 06:45:56;;;;;;;1.73;0.90;;;16.80;99.90;;;;;;4999072;28;20244;-71
2023/08/03 06:48:22;;;;;;;2.87;1.23;;;16.80;99.90;;;;;;4990145;28;20470;-74
2023/08/03 06:50:48;;;;;;;2.10;1.13;;;16.90;99.90;;;;;;4997785;28;20278;-73
2023/08/03 06:53:14;;;;;;;1.20;1.00;;;16.90;99.90;;;;;;5012585;28;20597;-73
2023/08/03 06:55:40;;;;;;;2.90;1.20;;;16.90;99.90;;;;;;4996688;28;20229;-71
2023/08/03 06:58:05;;;;;;;1.23;1.13;;;16.90;99.90;;;;;;4999540;28;20216;-73
2023/08/03 07:00:31;;;;;;;5.13;1.27;;;16.90;99.90;;;;;;5013146;28;20391;-73
2023/08/03 07:02:57;;;;;;;1.53;1.00;;;16.90;99.90;;;;;;4995017;28;20232;-74
2023/08/03 07:05:23;;;;;;;1.10;1.00;;;16.90;99.90;;;;;;4996059;28;20304;-73
2023/08/03 07:07:49;;;;;;;6.17;1.20;;;16.90;99.90;;;;;;4996653;28;20227;-73
2023/08/03 07:10:15;;;;;;;2.17;0.97;;;16.90;99.90;;;;;;4996890;28;20231;-73
2023/08/03 07:12:42;;;;;;;2.93;0.83;;;16.90;99.90;;;;;;5029449;28;20636;-71
2023/08/03 07:15:08;;;;;;;1.30;0.83;;;16.90;99.90;;;;;;5021182;28;20231;-73
2023/08/03 07:17:34;;;;;;;1.23;0.93;;;17.00;99.90;;;;;;5019378;28;20531;-73
2023/08/03 07:19:59;;;;;;;2.47;1.00;;;17.00;99.90;;;;;;5038713;28;20547;-73
2023/08/03 07:22:25;;;;;;;1.77;1.00;;;17.10;99.90;;;;;;5000260;28;20248;-73
2023/08/03 07:24:51;;;;;;;3.67;1.30;;;17.10;99.90;;;;;;5002155;28;20297;-74
2023/08/03 07:27:19;;;;;;;1.33;1.10;;;17.10;99.90;;;;;;5016116;28;20364;-73
2023/08/03 07:29:45;;;;;;;1.10;0.90;;;17.20;99.90;;;;;;5002777;28;20482;-73
2023/08/03 07:32:12;;;;;;;3.20;1.20;;;17.30;99.90;;;;;;5001759;28;20478;-73
2023/08/03 07:34:38;;;;;;;2.00;0.93;;;17.30;99.90;;;;;;5001018;28;20227;-73
2023/08/03 07:37:04;;;;;;;1.73;0.90;;;17.40;99.90;;;;;;5018411;28;20481;-73
2023/08/03 07:39:30;;;;;;;1.90;1.10;;;17.40;99.90;;;;;;5033621;28;20231;-73
2023/08/03 07:41:55;;;;;;;1.43;0.70;;;17.40;99.90;;;;;;5002395;28;20471;-73
2023/08/03 07:44:21;;;;;;;2.37;0.93;;;17.40;99.90;;;;;;5032934;28;20808;-73
2023/08/03 07:46:47;;;;;;;5.97;1.43;;;17.50;99.90;;;;;;5002938;28;20788;-74
2023/08/03 07:49:13;;;;;;;4.53;1.10;;;17.50;99.90;;;;;;4982590;28;20246;-73
2023/08/03 07:51:39;;;;;;;4.40;1.00;;;17.50;99.90;;;;;;5015121;28;20692;-74
2023/08/03 07:54:05;;;;;;;2.63;0.90;;;17.60;99.90;;;;;;4999502;28;20648;-72
2023/08/03 07:56:31;;;;;;;2.57;0.93;;;17.60;99.90;;;;;;5013832;28;20226;-73
2023/08/03 07:58:57;;;;;;;1.40;0.97;;;17.60;99.90;;;;;;4999388;28;20252;-72
2023/08/03 08:01:23;;;;;;;1.27;1.00;;;17.70;99.90;;;;;;4989310;28;20222;-74
2023/08/03 08:03:49;;;;;;;3.27;1.00;;;17.70;99.90;;;;;;4999902;28;20540;-73
2023/08/03 08:06:17;;;;;;;1.10;1.00;;;17.80;99.90;;;;;;5032943;28;20223;-72
2023/08/03 08:08:44;;;;;;;1.57;1.07;;;17.90;99.90;;;;;;5018733;28;20463;-73
2023/08/03 08:11:10;;;;;;;0.70;0.70;;;18.00;99.90;;;;;;5001781;28;21231;-73
2023/08/03 08:13:36;;;;;;;2.10;0.97;;;18.10;99.90;;;;;;5033486;28;20548;-73
2023/08/03 08:16:07;;;;;;;2.50;0.80;;;18.20;99.90;;;;;;5002094;28;21001;-73
2023/08/03 08:18:33;;;;;;;1.60;0.90;;;18.20;99.90;;;;;;4983607;28;20234;-73
2023/08/03 08:21:02;;;;;;;1.07;0.97;;;18.30;99.90;;;;;;4999781;28;20477;-73
2023/08/03 08:23:28;;;;;;;2.20;0.80;;;18.40;99.90;;;;;;4998201;28;20491;-73
2023/08/03 08:25:54;;;;;;;1.20;1.13;;;18.40;99.90;;;;;;5015120;28;20474;-72
2023/08/03 08:28:20;;;;;;;2.97;1.10;;;18.40;99.90;;;;;;4996572;28;20498;-73
2023/08/03 08:30:46;;;;;;;1.30;1.20;;;18.30;99.90;;;;;;5000069;28;20299;-73
2023/08/03 08:33:17;;;;;;;1.00;1.00;;;18.30;99.90;;;;;;5016221;28;20224;-73
2023/08/03 08:35:47;;;;;;;1.03;1.03;;;18.20;99.90;;;;;;4999688;28;20470;-73
2023/08/03 08:38:13;;;;;;;1.90;1.10;;;18.20;99.90;;;;;;5000003;28;20602;-72
2023/08/03 08:40:40;;;;;;;1.07;1.07;;;18.10;99.90;;;;;;4999948;28;20477;-72
2023/08/03 08:43:07;;;;;;;1.13;0.90;;;18.10;99.90;;;;;;5018727;28;20242;-74
2023/08/03 08:45:33;;;;;;;0.80;0.80;;;18.10;99.90;;;;;;5014256;28;20467;-73
2023/08/03 08:47:59;;;;;;;3.17;1.10;;;18.10;99.90;;;;;;5017155;28;20467;-72
2023/08/03 08:50:25;;;;;;;0.90;0.90;;;18.10;99.90;;;;;;4999734;28;20494;-73
2023/08/03 08:52:52;;;;;;;4.17;1.40;;;18.10;99.90;;;;;;5001306;28;20219;-73
2023/08/03 08:55:19;;;;;;;1.90;1.10;;;18.10;99.90;;;;;;4998204;28;20281;-73
2023/08/03 08:57:45;;;;;;;1.90;1.00;;;18.10;99.90;;;;;;5016071;28;20466;-72
2023/08/03 09:00:11;;;;;;;1.33;1.10;;;18.10;99.90;;;;;;4999177;28;20557;-73
2023/08/03 09:02:37;;;;;;;1.10;0.93;;;18.10;99.90;;;;;;5031815;28;20756;-73
2023/08/03 09:05:19;;;;;;;0.90;0.90;;;18.20;99.90;;;;;;5018200;28;20520;-72
2023/08/03 09:07:58;;;;;;;2.80;1.57;;;18.20;99.90;;;;;;5035613;28;20223;-72
2023/08/03 09:10:24;;;;;;;1.10;1.10;;;18.30;99.90;;;;;;5001057;28;20479;-73
2023/08/03 09:12:50;;;;;;;1.30;1.20;;;18.30;99.90;;;;;;5017018;28;20511;-73
2023/08/03 09:15:15;;;;;;;2.10;1.17;;;18.30;99.90;;;;;;5015838;28;20696;-73
2023/08/03 09:17:44;;;;;;;2.47;1.00;;;18.30;99.90;;;;;;5015044;28;20466;-73
2023/08/03 09:20:26;;;;;;;1.27;1.10;;;18.20;99.90;;;;;;4998598;28;20217;-74
2023/08/03 09:22:52;;;;;;;1.13;1.10;;;18.20;99.90;;;;;;5016100;28;20478;-73
2023/08/03 09:25:18;;;;;;;1.30;1.20;;;18.20;99.90;;;;;;4997232;28;20511;-72
2023/08/03 09:27:48;;;;;;;0.90;0.90;;;18.20;99.90;;;;;;5000435;28;20223;-74
2023/08/03 09:30:14;;;;;;;1.87;1.30;;;18.30;99.90;;;;;;5013446;28;20231;-72
2023/08/03 09:32:40;;;;;;;1.00;1.00;;;18.30;99.90;;;;;;4999514;28;20502;-73
2023/08/03 09:35:15;;;;;;;1.77;0.90;;;18.30;99.90;;;;;;4999675;28;20314;-74
2023/08/03 09:37:41;;;;;;;1.20;1.13;;;18.30;99.90;;;;;;5005601;28;20223;-73
2023/08/03 09:40:07;;;;;;;1.20;1.10;;;18.30;99.90;;;;;;5029875;28;20475;-73
2023/08/03 09:42:33;;;;;;;0.97;0.97;;;18.40;99.90;;;;;;5032450;28;20255;-73
2023/08/03 09:45:01;;;;;;;4.10;1.20;;;18.40;99.90;;;;;;5017158;28;20485;-73
2023/08/03 09:47:27;;;;;;;0.80;0.80;;;18.50;99.90;;;;;;5012801;28;20373;-73
2023/08/03 09:49:53;;;;;;;0.80;0.80;;;18.50;99.90;;;;;;5016996;28;20975;-72
2023/08/03 09:52:25;;;;;;;0.80;0.80;;;18.50;99.90;;;;;;5016640;28;20220;-73
2023/08/03 09:55:13;;;;;;;1.40;0.97;;;18.40;99.90;;;;;;5015927;28;20474;-74
2023/08/03 09:57:53;;;;;;;7.20;1.93;;;18.40;99.90;;;;;;5017588;28;20479;-73
2023/08/03 10:00:20;;;;;;;13.40;3.67;;;18.40;99.90;;;;;;5031519;28;20474;-73
2023/08/03 10:02:57;;;;;;;9.57;2.13;;;18.40;99.90;;;;;;5032545;28;20500;-73
2023/08/03 10:05:25;;;;;;;3.53;1.80;;;18.30;99.90;;;;;;5015043;28;20469;-73
2023/08/03 10:07:57;;;;;;;1.70;1.30;;;18.40;99.90;;;;;;5032492;28;20479;-74
2023/08/03 10:10:26;;;;;;;2.63;1.30;;;18.40;99.90;;;;;;5028930;28;20466;-72
2023/08/03 10:12:59;;;;;;;2.10;1.57;;;18.40;99.90;;;;;;5016657;28;20837;-73
2023/08/03 10:15:25;;;;;;;4.70;1.97;;;18.40;99.90;;;;;;5014375;28;20467;-73
2023/08/03 10:17:52;;;;;;;12.23;3.23;;;18.30;99.90;;;;;;5015116;28;20537;-73
2023/08/03 10:20:19;;;;;;;8.40;3.17;;;18.40;99.90;;;;;;5015290;28;20232;-73
2023/08/03 10:23:15;;;;;;;11.27;2.87;;;18.40;99.90;;;;;;4998705;28;20480;-74
2023/08/03 10:25:52;;;;;;;3.57;2.00;;;18.50;99.90;;;;;;5014404;28;20493;-73
2023/08/03 10:28:18;;;;;;;5.33;1.60;;;18.60;99.90;;;;;;5015369;28;20470;-73
2023/08/03 10:31:04;;;;;;;3.80;1.30;;;18.70;99.90;;;;;;5014692;28;20455;-72
2023/08/03 10:33:51;;;;;;;1.10;1.10;;;18.70;99.90;;;;;;5017807;28;20471;-73
2023/08/03 10:36:29;;;;;;;3.87;1.03;;;18.70;99.90;;;;;;5032494;28;20478;-73
2023/08/03 10:39:04;;;;;;;1.60;1.50;;;18.70;99.90;;;;;;5015474;28;20540;-73
2023/08/03 10:41:36;;;;;;;1.03;1.03;;;18.70;99.90;;;;;;5029810;28;20650;-73
2023/08/03 10:44:05;;;;;;;1.40;1.30;;;18.70;99.90;;;;;;5013427;28;20481;-74
2023/08/03 10:46:35;;;;;;;1.80;1.20;;;18.70;99.90;;;;;;5011864;28;20593;-73
2023/08/03 10:49:19;;;;;;;1.20;1.10;;;18.80;99.90;;;;;;5014287;28;20508;-74
2023/08/03 10:51:45;;;;;;;1.10;1.10;;;19.00;99.90;;;;;;5014184;28;20988;-74
2023/08/03 10:54:10;;;;;;;1.03;1.00;;;19.00;99.90;;;;;;5014833;28;20566;-74
2023/08/03 10:56:36;;;;;;;1.00;1.00;;;19.20;99.90;;;;;;5010878;28;20219;-73
2023/08/03 10:59:03;;;;;;;1.17;1.00;;;19.20;99.90;;;;;;5014987;28;21705;-71
2023/08/03 11:01:29;;;;;;;2.10;1.37;;;19.20;99.90;;;;;;5012004;28;20556;-73
2023/08/03 11:03:55;;;;;;;1.57;1.20;;;19.30;99.90;;;;;;5031778;28;20481;-73
2023/08/03 11:06:22;;;;;;;1.00;1.00;;;19.30;99.90;;;;;;5014182;28;20505;-73
2023/08/03 11:08:48;;;;;;;1.00;1.00;;;19.40;99.90;;;;;;5013952;28;20220;-74
2023/08/03 11:11:21;;;;;;;0.77;0.77;;;19.40;99.90;;;;;;5014150;28;20506;-73
2023/08/03 11:13:48;;;;;;;1.03;0.93;;;19.40;99.90;;;;;;5028544;28;20933;-73
2023/08/03 11:16:20;;;;;;;2.30;0.93;;;19.50;99.90;;;;;;5014635;28;20486;-74
2023/08/03 11:18:46;;;;;;;1.13;1.00;;;19.50;99.90;;;;;;5029203;28;20463;-73
2023/08/03 11:21:13;;;;;;;1.07;0.70;;;19.50;99.90;;;;;;5012624;28;20930;-73
2023/08/03 11:23:38;;;;;;;1.57;0.70;;;19.60;99.90;;;;;;5013129;28;20496;-72
2023/08/03 11:26:06;;;;;;;1.00;0.87;;;19.70;99.90;;;;;;5013574;28;20954;-72
2023/08/03 11:28:43;;;;;;;0.80;0.80;;;19.80;99.90;;;;;;5012064;28;20499;-73
2023/08/03 11:31:19;;;;;;;0.60;0.60;;;19.90;99.90;;;;;;5012942;28;20528;-72
2023/08/03 11:34:03;;;;;;;0.70;0.70;;;20.10;99.90;;;;;;5013166;28;21148;-73
2023/08/03 11:36:29;;;;;;;1.30;0.63;;;20.00;99.90;;;;;;5011179;28;20482;-72
2023/08/03 11:38:54;;;;;;;1.00;0.70;;;20.10;99.90;;;;;;5014411;28;20517;-74
2023/08/03 11:41:24;;;;;;;0.50;0.50;;;20.10;99.90;;;;;;5013362;28;20244;-72
2023/08/03 11:43:50;;;;;;;0.80;0.57;;;20.20;99.90;;;;;;5028546;28;20224;-73
2023/08/03 11:46:21;;;;;;;0.53;0.53;;;20.20;99.90;;;;;;5028639;28;21109;-73
2023/08/03 11:48:46;;;;;;;0.80;0.80;;;20.20;99.90;;;;;;4998104;28;20478;-73
2023/08/03 11:51:12;;;;;;;0.60;0.60;;;20.30;99.90;;;;;;5028183;28;20534;-73
2023/08/03 11:53:40;;;;;;;0.80;0.80;;;20.30;99.90;;;;;;4993589;28;20334;-73
2023/08/03 11:56:07;;;;;;;0.87;0.83;;;20.20;99.90;;;;;;5016265;28;20251;-75
2023/08/03 11:58:34;;;;;;;0.90;0.90;;;20.20;99.90;;;;;;5015425;28;20471;-73
2023/08/03 12:01:03;;;;;;;1.23;1.13;;;20.10;99.90;;;;;;5017777;28;20463;-73
2023/08/03 12:03:33;;;;;;;1.17;1.17;;;19.90;99.90;;;;;;5014716;28;20478;-73
2023/08/03 12:06:09;;;;;;;1.07;1.07;;;19.90;99.90;;;;;;5017806;28;20681;-74
2023/08/03 12:08:45;;;;;;;1.00;1.00;;;19.90;99.90;;;;;;4999573;28;20474;-73
2023/08/03 12:11:14;;;;;;;1.17;1.17;;;20.00;99.90;;;;;;5016949;28;20486;-73
2023/08/03 12:13:40;;;;;;;1.67;1.57;;;20.00;99.90;;;;;;5016565;28;20474;-73
2023/08/03 12:16:05;;;;;;;1.70;1.60;;;20.00;99.90;;;;;;5017855;28;20499;-74
2023/08/03 12:18:31;;;;;;;1.30;1.30;;;19.90;99.90;;;;;;5019391;28;20352;-74
2023/08/03 12:20:57;;;;;;;2.10;1.60;;;19.90;99.90;;;;;;5018008;28;20282;-73
2023/08/03 12:23:23;;;;;;;2.13;1.60;;;20.00;99.90;;;;;;5018335;28;20895;-73
2023/08/03 12:25:48;;;;;;;2.07;1.97;;;20.00;99.90;;;;;;5009147;28;20764;-73
2023/08/03 12:28:14;;;;;;;2.40;2.20;;;20.00;99.90;;;;;;5013584;28;20301;-73
2023/08/03 12:30:40;;;;;;;1.80;1.57;;;20.00;99.90;;;;;;4996224;28;20247;-73
2023/08/03 12:33:08;;;;;;;1.90;1.80;;;19.90;99.90;;;;;;5029870;28;20252;-74
2023/08/03 12:35:34;;;;;;;2.00;1.40;;;19.80;99.90;;;;;;5011965;28;20461;-73
2023/08/03 12:37:59;;;;;;;2.20;2.10;;;19.90;99.90;;;;;;5013174;28;20505;-73
2023/08/03 12:40:27;;;;;;;1.77;1.67;;;19.90;99.90;;;;;;5012067;28;20322;-73
2023/08/03 12:42:53;;;;;;;1.37;1.27;;;19.90;99.90;;;;;;5016706;28;20368;-73
2023/08/03 12:45:18;;;;;;;1.33;1.23;;;20.00;99.90;;;;;;5014715;28;20511;-73
2023/08/03 12:47:45;;;;;;;1.50;1.40;;;19.90;99.90;;;;;;5014059;28;20499;-72